Saint Francis, Minnesota
Current Conditions -  °F | °C
As of 6:35 AM on Monday 24 Nov 2014 (Local Time) from KCBG Reporting Station
Overcast Overcast  
Wind Chill: 17°   Ceiling: 1400
Heat Index: 27°   Visibility: 10mi
Dew Point: 19°   Wind: 10mph
Humidity: 74%   Direction: 290°WNW
Pressure: 29.32"   Gusts: 20mph
Location:  45.39°N, 93.36°W
Report Text: KCBG 241235Z AUTO 29009G17KT 10SM OVC014 M03/M07 A2932 RMK AO2
Loading
Personal Weather Stations






























Interactive Weather Map New forecast layout! Learn more

10-Day Weather Forecast

Advertisements
Track Severe Weather on mobile